sensor_id;sensor_type;location;lat;lon;timestamp;P1;durP1;ratioP1;P2;durP2;ratioP2
36195;SDS011;22237;51.974;4.616;2023-08-06T07:45:11;1.73;;;1.30;;
36195;SDS011;22237;51.974;4.616;2023-08-06T07:51:42;2.58;;;1.58;;
36195;SDS011;22237;51.974;4.616;2023-08-06T07:54:52;3.53;;;2.03;;
36195;SDS011;22237;51.974;4.616;2023-08-06T07:57:30;1.75;;;1.25;;
36195;SDS011;22237;51.974;4.616;2023-08-06T08:00:19;2.30;;;1.50;;
36195;SDS011;22237;51.974;4.616;2023-08-06T08:03:06;3.75;;;1.73;;
36195;SDS011;22237;51.974;4.616;2023-08-06T08:05:43;2.55;;;1.70;;
36195;SDS011;22237;51.974;4.616;2023-08-06T08:08:14;2.10;;;1.70;;
36195;SDS011;22237;51.974;4.616;2023-08-06T08:14:09;5.18;;;1.60;;
36195;SDS011;22237;51.974;4.616;2023-08-06T08:16:50;2.45;;;1.58;;
36195;SDS011;22237;51.974;4.616;2023-08-06T08:19:18;2.47;;;1.45;;
36195;SDS011;22237;51.974;4.616;2023-08-06T08:22:07;5.80;;;2.72;;
36195;SDS011;22237;51.974;4.616;2023-08-06T08:24:42;2.50;;;1.65;;
36195;SDS011;22237;51.974;4.616;2023-08-06T08:27:16;3.80;;;1.73;;
36195;SDS011;22237;51.974;4.616;2023-08-06T08:29:51;5.00;;;1.80;;
36195;SDS011;22237;51.974;4.616;2023-08-06T08:32:28;2.13;;;1.60;;
36195;SDS011;22237;51.974;4.616;2023-08-06T08:38:06;4.35;;;1.88;;
36195;SDS011;22237;51.974;4.616;2023-08-06T08:40:55;10.25;;;2.90;;
36195;SDS011;22237;51.974;4.616;2023-08-06T08:50:04;2.92;;;1.67;;
36195;SDS011;22237;51.974;4.616;2023-08-06T08:56:14;2.20;;;1.58;;
36195;SDS011;22237;51.974;4.616;2023-08-06T09:06:01;3.20;;;2.20;;
36195;SDS011;22237;51.974;4.616;2023-08-06T09:08:54;3.55;;;1.48;;
36195;SDS011;22237;51.974;4.616;2023-08-06T09:11:30;2.75;;;1.67;;
36195;SDS011;22237;51.974;4.616;2023-08-06T09:14:25;2.63;;;1.52;;
36195;SDS011;22237;51.974;4.616;2023-08-06T09:17:06;1.95;;;1.20;;
36195;SDS011;22237;51.974;4.616;2023-08-06T09:19:44;4.05;;;1.38;;
36195;SDS011;22237;51.974;4.616;2023-08-06T09:22:33;3.33;;;1.40;;
36195;SDS011;22237;51.974;4.616;2023-08-06T09:25:40;2.13;;;1.60;;
36195;SDS011;22237;51.974;4.616;2023-08-06T09:28:17;3.50;;;1.80;;
36195;SDS011;22237;51.974;4.616;2023-08-06T09:31:32;1.55;;;1.33;;
36195;SDS011;22237;51.974;4.616;2023-08-06T09:34:09;1.50;;;1.02;;
36195;SDS011;22237;51.974;4.616;2023-08-06T09:37:13;1.52;;;1.02;;
36195;SDS011;22237;51.974;4.616;2023-08-06T09:40:02;4.10;;;1.50;;
36195;SDS011;22237;51.974;4.616;2023-08-06T09:42:44;2.90;;;1.20;;
36195;SDS011;22237;51.974;4.616;2023-08-06T09:48:43;1.58;;;1.20;;
36195;SDS011;22237;51.974;4.616;2023-08-06T09:51:21;3.80;;;1.13;;
36195;SDS011;22237;51.974;4.616;2023-08-06T09:53:55;6.22;;;1.08;;
36195;SDS011;22237;51.974;4.616;2023-08-06T09:56:47;2.38;;;0.90;;
36195;SDS011;22237;51.974;4.616;2023-08-06T09:59:50;5.00;;;1.35;;
36195;SDS011;22237;51.974;4.616;2023-08-06T10:02:26;3.30;;;1.08;;
36195;SDS011;22237;51.974;4.616;2023-08-06T10:05:18;1.20;;;0.90;;
36195;SDS011;22237;51.974;4.616;2023-08-06T10:08:26;3.38;;;1.13;;
36195;SDS011;22237;51.974;4.616;2023-08-06T10:11:08;1.05;;;1.05;;
36195;SDS011;22237;51.974;4.616;2023-08-06T10:13:57;0.90;;;0.80;;
36195;SDS011;22237;51.974;4.616;2023-08-06T10:16:58;1.73;;;1.30;;
36195;SDS011;22237;51.974;4.616;2023-08-06T10:19:36;1.10;;;0.65;;
36195;SDS011;22237;51.974;4.616;2023-08-06T10:22:12;1.55;;;1.08;;
36195;SDS011;22237;51.974;4.616;2023-08-06T10:24:53;2.42;;;0.95;;
36195;SDS011;22237;51.974;4.616;2023-08-06T10:27:35;1.10;;;0.82;;
36195;SDS011;22237;51.974;4.616;2023-08-06T10:30:24;1.00;;;0.75;;
36195;SDS011;22237;51.974;4.616;2023-08-06T10:33:10;0.90;;;0.80;;
36195;SDS011;22237;51.974;4.616;2023-08-06T10:35:54;1.40;;;0.95;;
36195;SDS011;22237;51.974;4.616;2023-08-06T10:47:41;1.02;;;0.82;;
36195;SDS011;22237;51.974;4.616;2023-08-06T10:50:14;7.18;;;0.90;;
36195;SDS011;22237;51.974;4.616;2023-08-06T10:52:56;18.33;;;1.77;;
36195;SDS011;22237;51.974;4.616;2023-08-06T10:55:45;3.17;;;0.90;;
36195;SDS011;22237;51.974;4.616;2023-08-06T10:58:17;5.15;;;1.30;;
36195;SDS011;22237;51.974;4.616;2023-08-06T11:01:14;2.08;;;1.15;;
36195;SDS011;22237;51.974;4.616;2023-08-06T11:04:18;2.92;;;1.00;;
36195;SDS011;22237;51.974;4.616;2023-08-06T11:10:22;2.45;;;0.90;;
36195;SDS011;22237;51.974;4.616;2023-08-06T11:12:47;6.47;;;1.30;;
36195;SDS011;22237;51.974;4.616;2023-08-06T11:15:20;2.33;;;1.08;;
36195;SDS011;22237;51.974;4.616;2023-08-06T11:17:48;1.70;;;1.10;;
36195;SDS011;22237;51.974;4.616;2023-08-06T11:20:15;2.47;;;0.90;;
36195;SDS011;22237;51.974;4.616;2023-08-06T11:22:40;1.40;;;0.90;;
36195;SDS011;22237;51.974;4.616;2023-08-06T11:25:09;3.92;;;1.10;;
36195;SDS011;22237;51.974;4.616;2023-08-06T11:27:51;3.63;;;1.20;;
36195;SDS011;22237;51.974;4.616;2023-08-06T11:30:42;1.70;;;1.02;;
36195;SDS011;22237;51.974;4.616;2023-08-06T11:33:34;3.80;;;1.02;;
36195;SDS011;22237;51.974;4.616;2023-08-06T11:36:15;2.72;;;0.90;;
36195;SDS011;22237;51.974;4.616;2023-08-06T11:38:46;1.88;;;1.10;;
36195;SDS011;22237;51.974;4.616;2023-08-06T11:44:22;4.82;;;0.80;;
36195;SDS011;22237;51.974;4.616;2023-08-06T11:55:14;1.08;;;0.60;;
36195;SDS011;22237;51.974;4.616;2023-08-06T11:57:51;0.73;;;0.57;;
36195;SDS011;22237;51.974;4.616;2023-08-06T12:00:28;2.50;;;0.85;;
36195;SDS011;22237;51.974;4.616;2023-08-06T12:02:57;0.77;;;0.65;;
36195;SDS011;22237;51.974;4.616;2023-08-06T12:05:31;8.85;;;1.00;;
36195;SDS011;22237;51.974;4.616;2023-08-06T12:08:10;3.38;;;0.63;;
36195;SDS011;22237;51.974;4.616;2023-08-06T12:10:49;0.50;;;0.45;;
36195;SDS011;22237;51.974;4.616;2023-08-06T12:13:20;0.90;;;0.55;;
36195;SDS011;22237;51.974;4.616;2023-08-06T12:16:05;0.60;;;0.22;;
36195;SDS011;22237;51.974;4.616;2023-08-06T12:18:36;0.52;;;0.40;;
36195;SDS011;22237;51.974;4.616;2023-08-06T12:21:36;0.63;;;0.45;;
36195;SDS011;22237;51.974;4.616;2023-08-06T12:24:08;0.68;;;0.38;;
36195;SDS011;22237;51.974;4.616;2023-08-06T12:26:35;1.02;;;0.50;;
36195;SDS011;22237;51.974;4.616;2023-08-06T12:29:08;1.25;;;0.40;;
36195;SDS011;22237;51.974;4.616;2023-08-06T12:34:43;1.30;;;0.35;;
36195;SDS011;22237;51.974;4.616;2023-08-06T12:44:19;0.47;;;0.30;;
36195;SDS011;22237;51.974;4.616;2023-08-06T12:47:22;0.30;;;0.30;;
36195;SDS011;22237;51.974;4.616;2023-08-06T12:50:24;3.95;;;0.55;;
36195;SDS011;22237;51.974;4.616;2023-08-06T12:53:29;0.30;;;0.30;;
36195;SDS011;22237;51.974;4.616;2023-08-06T13:09:20;1.40;;;0.88;;
36195;SDS011;22237;51.974;4.616;2023-08-06T13:12:09;2.17;;;0.35;;
36195;SDS011;22237;51.974;4.616;2023-08-06T13:14:52;0.40;;;0.40;;
36195;SDS011;22237;51.974;4.616;2023-08-06T13:21:07;1.95;;;0.70;;
36195;SDS011;22237;51.974;4.616;2023-08-06T13:27:08;6.75;;;0.32;;
36195;SDS011;22237;51.974;4.616;2023-08-06T15:05:12;4.85;;;0.52;;
36195;SDS011;22237;51.974;4.616;2023-08-06T16:10:23;10.18;;;1.38;;
36195;SDS011;22237;51.974;4.616;2023-08-06T16:13:05;6.25;;;2.10;;
36195;SDS011;22237;51.974;4.616;2023-08-06T16:15:41;7.43;;;0.98;;
36195;SDS011;22237;51.974;4.616;2023-08-06T16:18:37;5.85;;;1.30;;
36195;SDS011;22237;51.974;4.616;2023-08-06T16:21:17;7.05;;;1.10;;
36195;SDS011;22237;51.974;4.616;2023-08-06T16:23:45;3.15;;;0.93;;
36195;SDS011;22237;51.974;4.616;2023-08-06T16:26:17;4.10;;;1.05;;
36195;SDS011;22237;51.974;4.616;2023-08-06T16:28:59;8.40;;;0.90;;
36195;SDS011;22237;51.974;4.616;2023-08-06T16:31:35;6.72;;;1.40;;
36195;SDS011;22237;51.974;4.616;2023-08-06T16:37:08;14.75;;;2.72;;
36195;SDS011;22237;51.974;4.616;2023-08-06T16:39:43;5.07;;;0.60;;
36195;SDS011;22237;51.974;4.616;2023-08-06T16:49:21;3.20;;;0.77;;
36195;SDS011;22237;51.974;4.616;2023-08-06T16:55:56;4.28;;;0.65;;
36195;SDS011;22237;51.974;4.616;2023-08-06T17:44:30;3.03;;;0.60;;
36195;SDS011;22237;51.974;4.616;2023-08-06T18:21:31;9.83;;;1.20;;
36195;SDS011;22237;51.974;4.616;2023-08-06T18:24:45;13.48;;;1.38;;
36195;SDS011;22237;51.974;4.616;2023-08-06T18:30:47;5.43;;;0.93;;
